sensor_id;sensor_type;location;lat;lon;timestamp;P1;durP1;ratioP1;P2;durP2;ratioP2
40599;SDS011;26309;50.924;4.754;2022-12-29T00:02:05;5.72;;;1.70;;
40599;SDS011;26309;50.924;4.754;2022-12-29T00:04:31;3.17;;;1.90;;
40599;SDS011;26309;50.924;4.754;2022-12-29T00:06:57;1.70;;;1.60;;
40599;SDS011;26309;50.924;4.754;2022-12-29T00:09:23;1.88;;;1.40;;
40599;SDS011;26309;50.924;4.754;2022-12-29T00:11:48;3.42;;;1.70;;
40599;SDS011;26309;50.924;4.754;2022-12-29T00:14:18;2.17;;;1.45;;
40599;SDS011;26309;50.924;4.754;2022-12-29T00:17:02;1.73;;;1.30;;
40599;SDS011;26309;50.924;4.754;2022-12-29T00:19:28;1.42;;;1.33;;
40599;SDS011;26309;50.924;4.754;2022-12-29T00:22:13;2.25;;;1.60;;
40599;SDS011;26309;50.924;4.754;2022-12-29T00:24:57;1.58;;;1.25;;
40599;SDS011;26309;50.924;4.754;2022-12-29T00:27:27;2.40;;;1.45;;
40599;SDS011;26309;50.924;4.754;2022-12-29T00:30:17;2.50;;;1.13;;
40599;SDS011;26309;50.924;4.754;2022-12-29T00:33:16;1.98;;;1.40;;
40599;SDS011;26309;50.924;4.754;2022-12-29T00:36:10;2.47;;;1.20;;
40599;SDS011;26309;50.924;4.754;2022-12-29T00:38:41;3.42;;;1.40;;
40599;SDS011;26309;50.924;4.754;2022-12-29T00:41:32;4.72;;;1.30;;
40599;SDS011;26309;50.924;4.754;2022-12-29T00:44:16;2.72;;;1.50;;
40599;SDS011;26309;50.924;4.754;2022-12-29T00:46:42;2.13;;;1.30;;
40599;SDS011;26309;50.924;4.754;2022-12-29T00:49:10;2.22;;;1.30;;
40599;SDS011;26309;50.924;4.754;2022-12-29T00:52:14;4.32;;;1.45;;
40599;SDS011;26309;50.924;4.754;2022-12-29T00:54:40;1.77;;;1.08;;
40599;SDS011;26309;50.924;4.754;2022-12-29T00:57:09;4.00;;;1.40;;
40599;SDS011;26309;50.924;4.754;2022-12-29T00:59:35;3.03;;;1.30;;
40599;SDS011;26309;50.924;4.754;2022-12-29T01:02:05;2.75;;;1.60;;
40599;SDS011;26309;50.924;4.754;2022-12-29T01:04:31;4.38;;;1.67;;
40599;SDS011;26309;50.924;4.754;2022-12-29T01:06:57;4.05;;;1.35;;
40599;SDS011;26309;50.924;4.754;2022-12-29T01:09:24;1.40;;;1.20;;
40599;SDS011;26309;50.924;4.754;2022-12-29T01:12:08;4.75;;;1.45;;
40599;SDS011;26309;50.924;4.754;2022-12-29T01:14:35;4.30;;;1.40;;
40599;SDS011;26309;50.924;4.754;2022-12-29T01:17:01;2.17;;;1.27;;
40599;SDS011;26309;50.924;4.754;2022-12-29T01:19:28;4.75;;;1.60;;
40599;SDS011;26309;50.924;4.754;2022-12-29T01:21:53;2.33;;;1.30;;
40599;SDS011;26309;50.924;4.754;2022-12-29T01:24:20;5.18;;;1.40;;
40599;SDS011;26309;50.924;4.754;2022-12-29T01:26:46;4.70;;;1.33;;
40599;SDS011;26309;50.924;4.754;2022-12-29T01:29:12;4.32;;;1.40;;
40599;SDS011;26309;50.924;4.754;2022-12-29T01:31:38;4.45;;;1.33;;
40599;SDS011;26309;50.924;4.754;2022-12-29T01:34:04;5.63;;;1.45;;
40599;SDS011;26309;50.924;4.754;2022-12-29T01:36:30;6.40;;;1.48;;
40599;SDS011;26309;50.924;4.754;2022-12-29T01:38:56;5.90;;;1.60;;
40599;SDS011;26309;50.924;4.754;2022-12-29T01:41:22;4.38;;;1.55;;
40599;SDS011;26309;50.924;4.754;2022-12-29T01:43:52;3.83;;;1.55;;
40599;SDS011;26309;50.924;4.754;2022-12-29T01:46:31;3.60;;;1.77;;
40599;SDS011;26309;50.924;4.754;2022-12-29T01:49:11;1.83;;;1.40;;
40599;SDS011;26309;50.924;4.754;2022-12-29T01:51:44;5.25;;;1.58;;
40599;SDS011;26309;50.924;4.754;2022-12-29T01:54:27;4.97;;;1.48;;
40599;SDS011;26309;50.924;4.754;2022-12-29T01:57:00;4.40;;;1.65;;
40599;SDS011;26309;50.924;4.754;2022-12-29T01:59:31;2.58;;;1.63;;
40599;SDS011;26309;50.924;4.754;2022-12-29T02:02:01;2.28;;;1.70;;
40599;SDS011;26309;50.924;4.754;2022-12-29T02:04:27;3.30;;;1.70;;
40599;SDS011;26309;50.924;4.754;2022-12-29T02:06:58;4.13;;;1.60;;
40599;SDS011;26309;50.924;4.754;2022-12-29T02:09:28;6.57;;;1.85;;
40599;SDS011;26309;50.924;4.754;2022-12-29T02:11:55;5.13;;;1.50;;
40599;SDS011;26309;50.924;4.754;2022-12-29T02:14:23;5.00;;;1.45;;
40599;SDS011;26309;50.924;4.754;2022-12-29T02:22:32;3.92;;;1.20;;
40599;SDS011;26309;50.924;4.754;2022-12-29T02:47:09;5.00;;;1.30;;
40599;SDS011;26309;50.924;4.754;2022-12-29T02:50:05;2.67;;;1.08;;
40599;SDS011;26309;50.924;4.754;2022-12-29T02:52:54;3.80;;;1.23;;
40599;SDS011;26309;50.924;4.754;2022-12-29T02:55:28;5.07;;;0.98;;
40599;SDS011;26309;50.924;4.754;2022-12-29T03:00:48;3.40;;;1.10;;
40599;SDS011;26309;50.924;4.754;2022-12-29T03:08:48;4.53;;;1.05;;
40599;SDS011;26309;50.924;4.754;2022-12-29T03:11:27;3.20;;;1.00;;
40599;SDS011;26309;50.924;4.754;2022-12-29T03:14:31;4.50;;;1.30;;
40599;SDS011;26309;50.924;4.754;2022-12-29T03:19:53;4.77;;;1.00;;
40599;SDS011;26309;50.924;4.754;2022-12-29T03:22:27;4.80;;;1.03;;
40599;SDS011;26309;50.924;4.754;2022-12-29T03:25:01;5.27;;;1.20;;
40599;SDS011;26309;50.924;4.754;2022-12-29T03:27:36;5.57;;;1.02;;
40599;SDS011;26309;50.924;4.754;2022-12-29T03:30:10;2.80;;;0.85;;
40599;SDS011;26309;50.924;4.754;2022-12-29T03:32:39;1.67;;;0.98;;
40599;SDS011;26309;50.924;4.754;2022-12-29T03:35:12;3.72;;;1.00;;
40599;SDS011;26309;50.924;4.754;2022-12-29T03:37:43;2.22;;;1.00;;
40599;SDS011;26309;50.924;4.754;2022-12-29T03:40:30;3.33;;;1.10;;
40599;SDS011;26309;50.924;4.754;2022-12-29T03:43:00;2.80;;;1.10;;
40599;SDS011;26309;50.924;4.754;2022-12-29T03:45:27;2.17;;;1.00;;
40599;SDS011;26309;50.924;4.754;2022-12-29T03:47:53;2.30;;;0.90;;
40599;SDS011;26309;50.924;4.754;2022-12-29T03:50:19;1.77;;;1.00;;
40599;SDS011;26309;50.924;4.754;2022-12-29T03:52:45;3.05;;;1.17;;
40599;SDS011;26309;50.924;4.754;2022-12-29T03:55:11;2.10;;;1.08;;
40599;SDS011;26309;50.924;4.754;2022-12-29T03:57:37;6.65;;;1.25;;
40599;SDS011;26309;50.924;4.754;2022-12-29T04:00:04;1.90;;;1.00;;
40599;SDS011;26309;50.924;4.754;2022-12-29T04:02:31;4.65;;;1.10;;
40599;SDS011;26309;50.924;4.754;2022-12-29T04:04:57;5.85;;;1.20;;
40599;SDS011;26309;50.924;4.754;2022-12-29T04:07:22;5.53;;;1.40;;
40599;SDS011;26309;50.924;4.754;2022-12-29T04:09:48;5.68;;;1.52;;
40599;SDS011;26309;50.924;4.754;2022-12-29T04:12:15;3.53;;;1.30;;
40599;SDS011;26309;50.924;4.754;2022-12-29T04:14:41;6.05;;;1.60;;
40599;SDS011;26309;50.924;4.754;2022-12-29T04:17:06;3.25;;;1.30;;
40599;SDS011;26309;50.924;4.754;2022-12-29T04:19:32;6.97;;;1.30;;
40599;SDS011;26309;50.924;4.754;2022-12-29T04:21:58;9.35;;;1.63;;
40599;SDS011;26309;50.924;4.754;2022-12-29T04:24:24;4.53;;;1.52;;
40599;SDS011;26309;50.924;4.754;2022-12-29T04:26:50;7.32;;;1.40;;
40599;SDS011;26309;50.924;4.754;2022-12-29T04:29:16;5.28;;;1.70;;
40599;SDS011;26309;50.924;4.754;2022-12-29T04:31:42;4.75;;;1.73;;
40599;SDS011;26309;50.924;4.754;2022-12-29T04:34:08;5.60;;;1.55;;
40599;SDS011;26309;50.924;4.754;2022-12-29T04:36:34;9.40;;;1.70;;
40599;SDS011;26309;50.924;4.754;2022-12-29T04:39:00;4.97;;;1.45;;
40599;SDS011;26309;50.924;4.754;2022-12-29T04:41:26;3.90;;;1.30;;
40599;SDS011;26309;50.924;4.754;2022-12-29T04:43:51;3.38;;;1.30;;
40599;SDS011;26309;50.924;4.754;2022-12-29T04:46:17;7.63;;;1.65;;
40599;SDS011;26309;50.924;4.754;2022-12-29T04:48:43;3.78;;;1.20;;
40599;SDS011;26309;50.924;4.754;2022-12-29T04:51:09;6.13;;;1.60;;
40599;SDS011;26309;50.924;4.754;2022-12-29T04:53:35;4.25;;;1.48;;
40599;SDS011;26309;50.924;4.754;2022-12-29T04:56:01;7.93;;;1.63;;
40599;SDS011;26309;50.924;4.754;2022-12-29T04:58:26;3.97;;;1.38;;
40599;SDS011;26309;50.924;4.754;2022-12-29T05:00:52;6.53;;;1.42;;
40599;SDS011;26309;50.924;4.754;2022-12-29T05:03:18;7.38;;;1.70;;
40599;SDS011;26309;50.924;4.754;2022-12-29T05:05:44;3.60;;;1.45;;
40599;SDS011;26309;50.924;4.754;2022-12-29T05:08:09;5.05;;;1.30;;
40599;SDS011;26309;50.924;4.754;2022-12-29T05:10:35;3.67;;;1.17;;
40599;SDS011;26309;50.924;4.754;2022-12-29T05:13:01;5.75;;;1.50;;
40599;SDS011;26309;50.924;4.754;2022-12-29T05:15:27;6.07;;;1.50;;
40599;SDS011;26309;50.924;4.754;2022-12-29T05:17:53;5.75;;;1.50;;
40599;SDS011;26309;50.924;4.754;2022-12-29T05:20:19;7.65;;;1.80;;
40599;SDS011;26309;50.924;4.754;2022-12-29T05:22:49;6.80;;;1.70;;
40599;SDS011;26309;50.924;4.754;2022-12-29T05:25:15;5.63;;;1.50;;
40599;SDS011;26309;50.924;4.754;2022-12-29T05:27:41;6.65;;;1.77;;
40599;SDS011;26309;50.924;4.754;2022-12-29T05:30:07;6.55;;;1.60;;
40599;SDS011;26309;50.924;4.754;2022-12-29T05:32:34;9.35;;;1.83;;
40599;SDS011;26309;50.924;4.754;2022-12-29T05:34:59;8.93;;;1.70;;
40599;SDS011;26309;50.924;4.754;2022-12-29T05:37:25;7.05;;;1.75;;
40599;SDS011;26309;50.924;4.754;2022-12-29T05:39:51;12.45;;;1.65;;
40599;SDS011;26309;50.924;4.754;2022-12-29T05:42:17;8.85;;;1.67;;
40599;SDS011;26309;50.924;4.754;2022-12-29T05:44:43;6.88;;;1.83;;
40599;SDS011;26309;50.924;4.754;2022-12-29T05:47:08;10.52;;;1.65;;
40599;SDS011;26309;50.924;4.754;2022-12-29T05:49:34;6.30;;;1.63;;
40599;SDS011;26309;50.924;4.754;2022-12-29T05:52:00;5.60;;;1.48;;
40599;SDS011;26309;50.924;4.754;2022-12-29T05:54:26;6.32;;;1.70;;
40599;SDS011;26309;50.924;4.754;2022-12-29T05:56:52;5.78;;;1.50;;
40599;SDS011;26309;50.924;4.754;2022-12-29T05:59:17;8.38;;;1.75;;
40599;SDS011;26309;50.924;4.754;2022-12-29T06:01:43;4.82;;;1.80;;
40599;SDS011;26309;50.924;4.754;2022-12-29T06:04:09;8.23;;;1.80;;
40599;SDS011;26309;50.924;4.754;2022-12-29T06:06:35;6.32;;;1.83;;
40599;SDS011;26309;50.924;4.754;2022-12-29T06:09:00;6.88;;;2.10;;
40599;SDS011;26309;50.924;4.754;2022-12-29T06:11:26;6.95;;;1.70;;
40599;SDS011;26309;50.924;4.754;2022-12-29T06:13:52;6.85;;;1.70;;
40599;SDS011;26309;50.924;4.754;2022-12-29T06:16:18;7.43;;;2.22;;
40599;SDS011;26309;50.924;4.754;2022-12-29T06:18:44;8.90;;;2.13;;
40599;SDS011;26309;50.924;4.754;2022-12-29T06:21:10;6.13;;;1.50;;
40599;SDS011;26309;50.924;4.754;2022-12-29T06:23:36;11.90;;;1.73;;
40599;SDS011;26309;50.924;4.754;2022-12-29T06:26:02;9.38;;;2.03;;
40599;SDS011;26309;50.924;4.754;2022-12-29T06:28:27;7.72;;;1.60;;
40599;SDS011;26309;50.924;4.754;2022-12-29T06:30:53;14.90;;;2.00;;
40599;SDS011;26309;50.924;4.754;2022-12-29T06:33:19;9.52;;;2.47;;
40599;SDS011;26309;50.924;4.754;2022-12-29T06:35:45;9.88;;;2.33;;
40599;SDS011;26309;50.924;4.754;2022-12-29T06:38:12;7.07;;;1.85;;
40599;SDS011;26309;50.924;4.754;2022-12-29T06:40:38;9.57;;;1.92;;
40599;SDS011;26309;50.924;4.754;2022-12-29T06:43:06;6.05;;;1.70;;
40599;SDS011;26309;50.924;4.754;2022-12-29T06:45:37;11.52;;;1.90;;
40599;SDS011;26309;50.924;4.754;2022-12-29T06:48:06;10.60;;;2.20;;
40599;SDS011;26309;50.924;4.754;2022-12-29T06:50:32;8.40;;;2.13;;
40599;SDS011;26309;50.924;4.754;2022-12-29T06:52:58;12.77;;;1.92;;
40599;SDS011;26309;50.924;4.754;2022-12-29T06:55:24;9.68;;;1.80;;
40599;SDS011;26309;50.924;4.754;2022-12-29T06:57:53;13.40;;;2.40;;
40599;SDS011;26309;50.924;4.754;2022-12-29T07:00:21;9.25;;;2.10;;
40599;SDS011;26309;50.924;4.754;2022-12-29T07:02:47;8.25;;;1.95;;
40599;SDS011;26309;50.924;4.754;2022-12-29T07:05:13;7.90;;;1.88;;
40599;SDS011;26309;50.924;4.754;2022-12-29T07:07:39;12.88;;;2.20;;
40599;SDS011;26309;50.924;4.754;2022-12-29T07:10:05;15.88;;;2.22;;
40599;SDS011;26309;50.924;4.754;2022-12-29T07:12:30;9.88;;;1.88;;
40599;SDS011;26309;50.924;4.754;2022-12-29T07:14:56;9.18;;;1.77;;
40599;SDS011;26309;50.924;4.754;2022-12-29T07:17:22;8.38;;;2.05;;
40599;SDS011;26309;50.924;4.754;2022-12-29T07:19:48;12.15;;;2.17;;
40599;SDS011;26309;50.924;4.754;2022-12-29T07:22:14;12.05;;;2.55;;
40599;SDS011;26309;50.924;4.754;2022-12-29T07:24:40;12.25;;;2.28;;
40599;SDS011;26309;50.924;4.754;2022-12-29T07:27:06;9.43;;;2.17;;
40599;SDS011;26309;50.924;4.754;2022-12-29T07:29:32;8.15;;;2.15;;
40599;SDS011;26309;50.924;4.754;2022-12-29T07:31:58;15.15;;;2.13;;
40599;SDS011;26309;50.924;4.754;2022-12-29T07:34:24;12.57;;;2.42;;
40599;SDS011;26309;50.924;4.754;2022-12-29T07:36:49;9.75;;;1.98;;
40599;SDS011;26309;50.924;4.754;2022-12-29T07:39:15;5.95;;;1.85;;
40599;SDS011;26309;50.924;4.754;2022-12-29T07:41:41;10.27;;;2.17;;
40599;SDS011;26309;50.924;4.754;2022-12-29T07:44:08;8.18;;;1.92;;
40599;SDS011;26309;50.924;4.754;2022-12-29T07:46:34;9.73;;;2.00;;
40599;SDS011;26309;50.924;4.754;2022-12-29T07:48:59;6.88;;;2.17;;
40599;SDS011;26309;50.924;4.754;2022-12-29T07:51:25;9.48;;;1.75;;
40599;SDS011;26309;50.924;4.754;2022-12-29T07:53:51;11.18;;;2.10;;
40599;SDS011;26309;50.924;4.754;2022-12-29T07:56:17;8.95;;;2.35;;
40599;SDS011;26309;50.924;4.754;2022-12-29T07:58:42;10.15;;;2.38;;
40599;SDS011;26309;50.924;4.754;2022-12-29T08:01:08;7.47;;;1.90;;
40599;SDS011;26309;50.924;4.754;2022-12-29T08:03:34;10.30;;;2.08;;
40599;SDS011;26309;50.924;4.754;2022-12-29T08:06:01;13.13;;;2.22;;
40599;SDS011;26309;50.924;4.754;2022-12-29T08:08:27;8.70;;;2.03;;
40599;SDS011;26309;50.924;4.754;2022-12-29T08:10:56;10.27;;;2.03;;
40599;SDS011;26309;50.924;4.754;2022-12-29T08:13:22;10.60;;;2.30;;
40599;SDS011;26309;50.924;4.754;2022-12-29T08:15:48;11.77;;;2.78;;
40599;SDS011;26309;50.924;4.754;2022-12-29T08:18:14;6.70;;;1.98;;
40599;SDS011;26309;50.924;4.754;2022-12-29T08:20:39;9.40;;;2.33;;
40599;SDS011;26309;50.924;4.754;2022-12-29T08:23:05;8.05;;;2.22;;
40599;SDS011;26309;50.924;4.754;2022-12-29T08:25:31;11.18;;;2.60;;
40599;SDS011;26309;50.924;4.754;2022-12-29T08:27:57;10.38;;;2.20;;
40599;SDS011;26309;50.924;4.754;2022-12-29T08:30:22;9.82;;;2.22;;
40599;SDS011;26309;50.924;4.754;2022-12-29T08:32:48;9.93;;;2.47;;
40599;SDS011;26309;50.924;4.754;2022-12-29T08:35:14;8.50;;;2.05;;
40599;SDS011;26309;50.924;4.754;2022-12-29T08:37:40;7.68;;;1.88;;
40599;SDS011;26309;50.924;4.754;2022-12-29T08:40:06;12.85;;;2.47;;
40599;SDS011;26309;50.924;4.754;2022-12-29T08:42:32;11.90;;;2.28;;
40599;SDS011;26309;50.924;4.754;2022-12-29T08:44:59;8.20;;;2.00;;
40599;SDS011;26309;50.924;4.754;2022-12-29T08:47:25;12.95;;;2.10;;
40599;SDS011;26309;50.924;4.754;2022-12-29T08:49:52;15.32;;;2.25;;
40599;SDS011;26309;50.924;4.754;2022-12-29T08:52:18;12.10;;;2.20;;
40599;SDS011;26309;50.924;4.754;2022-12-29T08:54:43;13.75;;;2.17;;
40599;SDS011;26309;50.924;4.754;2022-12-29T08:57:09;13.00;;;2.53;;
40599;SDS011;26309;50.924;4.754;2022-12-29T08:59:35;15.10;;;2.58;;
40599;SDS011;26309;50.924;4.754;2022-12-29T09:02:01;12.23;;;2.30;;
40599;SDS011;26309;50.924;4.754;2022-12-29T09:04:27;8.18;;;2.22;;
40599;SDS011;26309;50.924;4.754;2022-12-29T09:06:53;9.82;;;2.17;;
40599;SDS011;26309;50.924;4.754;2022-12-29T09:09:19;10.18;;;2.33;;
40599;SDS011;26309;50.924;4.754;2022-12-29T09:11:46;10.43;;;2.35;;
40599;SDS011;26309;50.924;4.754;2022-12-29T09:14:12;8.68;;;2.17;;
40599;SDS011;26309;50.924;4.754;2022-12-29T09:16:38;11.10;;;2.40;;
40599;SDS011;26309;50.924;4.754;2022-12-29T09:19:23;7.80;;;2.20;;
40599;SDS011;26309;50.924;4.754;2022-12-29T09:21:49;11.18;;;2.00;;
40599;SDS011;26309;50.924;4.754;2022-12-29T09:24:14;12.02;;;2.53;;
40599;SDS011;26309;50.924;4.754;2022-12-29T09:26:40;6.53;;;2.40;;
40599;SDS011;26309;50.924;4.754;2022-12-29T09:29:06;15.10;;;2.97;;
40599;SDS011;26309;50.924;4.754;2022-12-29T09:31:32;8.25;;;2.50;;
40599;SDS011;26309;50.924;4.754;2022-12-29T09:33:58;15.10;;;3.03;;
40599;SDS011;26309;50.924;4.754;2022-12-29T09:36:24;11.80;;;2.53;;
40599;SDS011;26309;50.924;4.754;2022-12-29T09:38:50;8.73;;;2.50;;
40599;SDS011;26309;50.924;4.754;2022-12-29T09:41:24;13.13;;;2.55;;
40599;SDS011;26309;50.924;4.754;2022-12-29T09:46:33;14.25;;;2.50;;
40599;SDS011;26309;50.924;4.754;2022-12-29T09:52:15;11.60;;;2.70;;
40599;SDS011;26309;50.924;4.754;2022-12-29T09:54:51;12.10;;;2.60;;
40599;SDS011;26309;50.924;4.754;2022-12-29T09:57:27;13.18;;;2.85;;
40599;SDS011;26309;50.924;4.754;2022-12-29T10:00:01;16.48;;;2.63;;
40599;SDS011;26309;50.924;4.754;2022-12-29T10:02:37;12.70;;;2.65;;
40599;SDS011;26309;50.924;4.754;2022-12-29T10:05:13;14.25;;;2.90;;
40599;SDS011;26309;50.924;4.754;2022-12-29T10:13:26;15.18;;;2.60;;
40599;SDS011;26309;50.924;4.754;2022-12-29T10:16:11;13.35;;;2.38;;
40599;SDS011;26309;50.924;4.754;2022-12-29T10:23:58;9.30;;;2.88;;
40599;SDS011;26309;50.924;4.754;2022-12-29T10:26:27;12.75;;;2.50;;
40599;SDS011;26309;50.924;4.754;2022-12-29T10:28:56;13.77;;;3.15;;
40599;SDS011;26309;50.924;4.754;2022-12-29T10:31:33;11.77;;;2.38;;
40599;SDS011;26309;50.924;4.754;2022-12-29T10:34:14;10.98;;;2.42;;
40599;SDS011;26309;50.924;4.754;2022-12-29T10:36:51;9.75;;;2.92;;
40599;SDS011;26309;50.924;4.754;2022-12-29T10:39:26;9.98;;;2.60;;
40599;SDS011;26309;50.924;4.754;2022-12-29T10:45:05;15.25;;;2.92;;
40599;SDS011;26309;50.924;4.754;2022-12-29T10:47:38;18.42;;;2.55;;
40599;SDS011;26309;50.924;4.754;2022-12-29T10:50:14;11.73;;;2.70;;
40599;SDS011;26309;50.924;4.754;2022-12-29T10:52:40;15.32;;;2.90;;
40599;SDS011;26309;50.924;4.754;2022-12-29T10:55:13;10.48;;;2.75;;
40599;SDS011;26309;50.924;4.754;2022-12-29T10:57:45;10.65;;;2.40;;
40599;SDS011;26309;50.924;4.754;2022-12-29T11:05:46;10.77;;;2.95;;
40599;SDS011;26309;50.924;4.754;2022-12-29T11:08:35;8.23;;;2.20;;
40599;SDS011;26309;50.924;4.754;2022-12-29T11:11:07;13.90;;;3.00;;
40599;SDS011;26309;50.924;4.754;2022-12-29T11:13:35;11.63;;;2.80;;
40599;SDS011;26309;50.924;4.754;2022-12-29T11:16:13;10.13;;;2.50;;
40599;SDS011;26309;50.924;4.754;2022-12-29T11:18:39;8.27;;;2.50;;
40599;SDS011;26309;50.924;4.754;2022-12-29T11:21:25;11.93;;;2.40;;
40599;SDS011;26309;50.924;4.754;2022-12-29T11:26:26;12.77;;;2.60;;
40599;SDS011;26309;50.924;4.754;2022-12-29T11:29:39;6.72;;;2.05;;
40599;SDS011;26309;50.924;4.754;2022-12-29T11:31:40;13.10;;;3.03;;
40599;SDS011;26309;50.924;4.754;2022-12-29T11:36:45;8.85;;;2.53;;
40599;SDS011;26309;50.924;4.754;2022-12-29T11:39:26;13.13;;;2.20;;
40599;SDS011;26309;50.924;4.754;2022-12-29T11:42:13;11.48;;;2.45;;
40599;SDS011;26309;50.924;4.754;2022-12-29T11:44:44;16.05;;;2.55;;
40599;SDS011;26309;50.924;4.754;2022-12-29T11:47:22;12.65;;;2.70;;
40599;SDS011;26309;50.924;4.754;2022-12-29T11:49:57;12.73;;;2.80;;
40599;SDS011;26309;50.924;4.754;2022-12-29T11:52:26;11.88;;;2.50;;
40599;SDS011;26309;50.924;4.754;2022-12-29T11:54:54;15.40;;;2.60;;
40599;SDS011;26309;50.924;4.754;2022-12-29T11:57:22;12.65;;;2.65;;
40599;SDS011;26309;50.924;4.754;2022-12-29T11:59:53;13.00;;;2.40;;
40599;SDS011;26309;50.924;4.754;2022-12-29T12:04:49;14.27;;;2.55;;
40599;SDS011;26309;50.924;4.754;2022-12-29T12:10:37;10.95;;;2.33;;
40599;SDS011;26309;50.924;4.754;2022-12-29T12:13:20;16.52;;;2.67;;
40599;SDS011;26309;50.924;4.754;2022-12-29T12:16:07;15.20;;;2.92;;
40599;SDS011;26309;50.924;4.754;2022-12-29T12:18:41;11.02;;;2.47;;
40599;SDS011;26309;50.924;4.754;2022-12-29T12:35:19;8.75;;;2.10;;
40599;SDS011;26309;50.924;4.754;2022-12-29T12:40:54;9.55;;;2.28;;
40599;SDS011;26309;50.924;4.754;2022-12-29T12:43:34;9.43;;;2.47;;
40599;SDS011;26309;50.924;4.754;2022-12-29T12:56:35;15.10;;;2.63;;
40599;SDS011;26309;50.924;4.754;2022-12-29T12:59:36;12.25;;;2.40;;
40599;SDS011;26309;50.924;4.754;2022-12-29T13:05:00;14.95;;;2.55;;
40599;SDS011;26309;50.924;4.754;2022-12-29T13:27:00;11.73;;;2.22;;
40599;SDS011;26309;50.924;4.754;2022-12-29T13:32:35;7.53;;;2.20;;
40599;SDS011;26309;50.924;4.754;2022-12-29T13:35:11;14.30;;;1.98;;
40599;SDS011;26309;50.924;4.754;2022-12-29T13:37:57;9.18;;;2.15;;
40599;SDS011;26309;50.924;4.754;2022-12-29T13:40:45;9.75;;;2.50;;
40599;SDS011;26309;50.924;4.754;2022-12-29T13:43:14;9.35;;;2.50;;
40599;SDS011;26309;50.924;4.754;2022-12-29T13:45:42;12.48;;;2.47;;
40599;SDS011;26309;50.924;4.754;2022-12-29T13:48:19;10.27;;;2.50;;
40599;SDS011;26309;50.924;4.754;2022-12-29T13:50:51;10.15;;;2.45;;
40599;SDS011;26309;50.924;4.754;2022-12-29T14:01:23;6.78;;;2.53;;
40599;SDS011;26309;50.924;4.754;2022-12-29T14:03:55;10.25;;;2.60;;
40599;SDS011;26309;50.924;4.754;2022-12-29T14:11:33;13.38;;;2.63;;
40599;SDS011;26309;50.924;4.754;2022-12-29T14:14:10;9.93;;;2.75;;
40599;SDS011;26309;50.924;4.754;2022-12-29T14:16:47;13.45;;;2.63;;
40599;SDS011;26309;50.924;4.754;2022-12-29T14:19:17;10.80;;;2.88;;
40599;SDS011;26309;50.924;4.754;2022-12-29T14:21:59;14.07;;;3.03;;
40599;SDS011;26309;50.924;4.754;2022-12-29T14:27:51;12.23;;;3.05;;
40599;SDS011;26309;50.924;4.754;2022-12-29T14:29:49;15.27;;;3.10;;
40599;SDS011;26309;50.924;4.754;2022-12-29T14:34:51;14.25;;;2.92;;
40599;SDS011;26309;50.924;4.754;2022-12-29T14:37:39;12.93;;;3.20;;
40599;SDS011;26309;50.924;4.754;2022-12-29T14:40:15;8.55;;;2.53;;
40599;SDS011;26309;50.924;4.754;2022-12-29T14:42:48;13.30;;;3.03;;
40599;SDS011;26309;50.924;4.754;2022-12-29T14:47:45;15.43;;;3.38;;
40599;SDS011;26309;50.924;4.754;2022-12-29T14:52:46;13.60;;;3.25;;
40599;SDS011;26309;50.924;4.754;2022-12-29T15:01:00;15.60;;;3.00;;
40599;SDS011;26309;50.924;4.754;2022-12-29T15:03:35;11.85;;;2.80;;
40599;SDS011;26309;50.924;4.754;2022-12-29T15:06:10;14.85;;;3.03;;
40599;SDS011;26309;50.924;4.754;2022-12-29T15:16:53;6.50;;;2.03;;
40599;SDS011;26309;50.924;4.754;2022-12-29T15:19:23;6.78;;;2.10;;
40599;SDS011;26309;50.924;4.754;2022-12-29T15:21:50;5.43;;;1.90;;
40599;SDS011;26309;50.924;4.754;2022-12-29T15:24:18;8.90;;;1.80;;
40599;SDS011;26309;50.924;4.754;2022-12-29T15:26:49;9.50;;;2.40;;
40599;SDS011;26309;50.924;4.754;2022-12-29T15:29:32;10.17;;;2.50;;
40599;SDS011;26309;50.924;4.754;2022-12-29T15:32:10;7.27;;;2.10;;
40599;SDS011;26309;50.924;4.754;2022-12-29T15:34:41;10.73;;;2.33;;
40599;SDS011;26309;50.924;4.754;2022-12-29T15:37:44;8.63;;;2.17;;
40599;SDS011;26309;50.924;4.754;2022-12-29T15:40:02;7.53;;;2.07;;
40599;SDS011;26309;50.924;4.754;2022-12-29T15:45:16;5.77;;;2.13;;
40599;SDS011;26309;50.924;4.754;2022-12-29T15:47:43;12.90;;;2.30;;
40599;SDS011;26309;50.924;4.754;2022-12-29T15:50:27;4.70;;;1.80;;
40599;SDS011;26309;50.924;4.754;2022-12-29T15:52:57;6.43;;;2.00;;
40599;SDS011;26309;50.924;4.754;2022-12-29T15:55:38;21.83;;;11.50;;
40599;SDS011;26309;50.924;4.754;2022-12-29T15:58:17;10.57;;;4.13;;
40599;SDS011;26309;50.924;4.754;2022-12-29T16:00:48;10.73;;;4.67;;
40599;SDS011;26309;50.924;4.754;2022-12-29T16:03:18;10.07;;;3.10;;
40599;SDS011;26309;50.924;4.754;2022-12-29T16:05:52;10.00;;;2.27;;
40599;SDS011;26309;50.924;4.754;2022-12-29T16:11:02;11.93;;;5.70;;
40599;SDS011;26309;50.924;4.754;2022-12-29T16:13:47;6.13;;;3.17;;
40599;SDS011;26309;50.924;4.754;2022-12-29T16:16:19;11.93;;;2.50;;
40599;SDS011;26309;50.924;4.754;2022-12-29T16:18:51;8.27;;;2.47;;
40599;SDS011;26309;50.924;4.754;2022-12-29T16:21:21;4.50;;;1.93;;
40599;SDS011;26309;50.924;4.754;2022-12-29T16:23:54;11.37;;;2.50;;
40599;SDS011;26309;50.924;4.754;2022-12-29T16:26:24;5.30;;;2.03;;
40599;SDS011;26309;50.924;4.754;2022-12-29T16:28:51;9.67;;;2.50;;
40599;SDS011;26309;50.924;4.754;2022-12-29T16:31:23;8.93;;;2.50;;
40599;SDS011;26309;50.924;4.754;2022-12-29T16:33:51;9.80;;;2.77;;
40599;SDS011;26309;50.924;4.754;2022-12-29T16:36:27;12.87;;;2.90;;
40599;SDS011;26309;50.924;4.754;2022-12-29T16:39:32;14.17;;;3.10;;
40599;SDS011;26309;50.924;4.754;2022-12-29T16:41:58;11.40;;;5.20;;
40599;SDS011;26309;50.924;4.754;2022-12-29T16:47:00;16.73;;;3.80;;
40599;SDS011;26309;50.924;4.754;2022-12-29T16:49:51;19.07;;;3.77;;
40599;SDS011;26309;50.924;4.754;2022-12-29T16:54:59;14.10;;;4.23;;
40599;SDS011;26309;50.924;4.754;2022-12-29T16:57:29;15.00;;;3.57;;
40599;SDS011;26309;50.924;4.754;2022-12-29T16:59:59;15.90;;;4.37;;
40599;SDS011;26309;50.924;4.754;2022-12-29T17:02:29;16.07;;;4.17;;
40599;SDS011;26309;50.924;4.754;2022-12-29T17:04:57;20.13;;;4.53;;
40599;SDS011;26309;50.924;4.754;2022-12-29T17:07:24;19.87;;;4.20;;
40599;SDS011;26309;50.924;4.754;2022-12-29T17:09:51;16.77;;;3.90;;
40599;SDS011;26309;50.924;4.754;2022-12-29T17:12:25;23.47;;;3.63;;
40599;SDS011;26309;50.924;4.754;2022-12-29T17:14:57;26.07;;;12.13;;
40599;SDS011;26309;50.924;4.754;2022-12-29T17:17:31;18.83;;;3.97;;
40599;SDS011;26309;50.924;4.754;2022-12-29T17:22:43;18.40;;;4.73;;
40599;SDS011;26309;50.924;4.754;2022-12-29T17:25:16;30.77;;;13.73;;
40599;SDS011;26309;50.924;4.754;2022-12-29T17:27:53;11.30;;;3.73;;
40599;SDS011;26309;50.924;4.754;2022-12-29T17:30:21;22.60;;;4.37;;
40599;SDS011;26309;50.924;4.754;2022-12-29T17:32:51;20.03;;;3.90;;
40599;SDS011;26309;50.924;4.754;2022-12-29T17:35:19;22.33;;;4.07;;
40599;SDS011;26309;50.924;4.754;2022-12-29T17:37:46;18.17;;;3.70;;
40599;SDS011;26309;50.924;4.754;2022-12-29T17:40:19;21.13;;;3.83;;
40599;SDS011;26309;50.924;4.754;2022-12-29T17:42:51;19.33;;;4.13;;
40599;SDS011;26309;50.924;4.754;2022-12-29T17:45:28;15.53;;;3.97;;
40599;SDS011;26309;50.924;4.754;2022-12-29T17:47:55;13.30;;;3.43;;
40599;SDS011;26309;50.924;4.754;2022-12-29T17:50:24;21.50;;;3.60;;
40599;SDS011;26309;50.924;4.754;2022-12-29T17:53:04;27.07;;;3.90;;
40599;SDS011;26309;50.924;4.754;2022-12-29T17:55:32;14.87;;;3.63;;
40599;SDS011;26309;50.924;4.754;2022-12-29T17:57:58;15.10;;;3.23;;
40599;SDS011;26309;50.924;4.754;2022-12-29T18:00:28;15.23;;;3.80;;
40599;SDS011;26309;50.924;4.754;2022-12-29T18:02:55;14.77;;;3.50;;